sensor_id;sensor_type;location;lat;lon;timestamp;P1;durP1;ratioP1;P2;durP2;ratioP2
22715;SDS011;11525;51.152;4.456;2024-02-21T00:00:52;23.13;;;11.90;;
22715;SDS011;11525;51.152;4.456;2024-02-21T00:03:18;32.78;;;12.30;;
22715;SDS011;11525;51.152;4.456;2024-02-21T00:05:44;30.25;;;11.63;;
22715;SDS011;11525;51.152;4.456;2024-02-21T00:08:10;28.08;;;11.57;;
22715;SDS011;11525;51.152;4.456;2024-02-21T00:10:36;26.88;;;11.65;;
22715;SDS011;11525;51.152;4.456;2024-02-21T00:13:02;28.67;;;11.82;;
22715;SDS011;11525;51.152;4.456;2024-02-21T00:15:28;25.50;;;10.90;;
22715;SDS011;11525;51.152;4.456;2024-02-21T00:17:54;21.92;;;10.23;;
22715;SDS011;11525;51.152;4.456;2024-02-21T00:20:20;22.35;;;10.45;;
22715;SDS011;11525;51.152;4.456;2024-02-21T00:22:45;25.58;;;10.20;;
22715;SDS011;11525;51.152;4.456;2024-02-21T00:25:11;28.13;;;11.32;;
22715;SDS011;11525;51.152;4.456;2024-02-21T00:27:37;22.83;;;11.68;;
22715;SDS011;11525;51.152;4.456;2024-02-21T00:30:04;21.45;;;11.15;;
22715;SDS011;11525;51.152;4.456;2024-02-21T00:32:30;24.75;;;10.40;;
22715;SDS011;11525;51.152;4.456;2024-02-21T00:34:59;24.42;;;10.70;;
22715;SDS011;11525;51.152;4.456;2024-02-21T00:37:24;32.40;;;11.35;;
22715;SDS011;11525;51.152;4.456;2024-02-21T00:39:50;21.67;;;10.55;;
22715;SDS011;11525;51.152;4.456;2024-02-21T00:42:16;23.02;;;10.85;;
22715;SDS011;11525;51.152;4.456;2024-02-21T00:44:42;28.27;;;11.23;;
22715;SDS011;11525;51.152;4.456;2024-02-21T00:47:07;23.20;;;10.18;;
22715;SDS011;11525;51.152;4.456;2024-02-21T00:49:33;26.85;;;11.65;;
22715;SDS011;11525;51.152;4.456;2024-02-21T00:51:59;26.65;;;11.25;;
22715;SDS011;11525;51.152;4.456;2024-02-21T00:54:24;21.05;;;10.77;;
22715;SDS011;11525;51.152;4.456;2024-02-21T00:56:50;19.13;;;10.35;;
22715;SDS011;11525;51.152;4.456;2024-02-21T00:59:16;25.05;;;11.10;;
22715;SDS011;11525;51.152;4.456;2024-02-21T01:01:41;22.33;;;11.25;;
22715;SDS011;11525;51.152;4.456;2024-02-21T01:04:08;22.08;;;10.68;;
22715;SDS011;11525;51.152;4.456;2024-02-21T01:06:34;26.50;;;11.45;;
22715;SDS011;11525;51.152;4.456;2024-02-21T01:09:00;30.70;;;11.57;;
22715;SDS011;11525;51.152;4.456;2024-02-21T01:11:26;25.52;;;11.50;;
22715;SDS011;11525;51.152;4.456;2024-02-21T01:13:52;24.60;;;12.52;;
22715;SDS011;11525;51.152;4.456;2024-02-21T01:16:18;32.63;;;12.52;;
22715;SDS011;11525;51.152;4.456;2024-02-21T01:18:44;22.67;;;12.55;;
22715;SDS011;11525;51.152;4.456;2024-02-21T01:21:10;24.90;;;11.80;;
22715;SDS011;11525;51.152;4.456;2024-02-21T01:23:36;23.13;;;12.27;;
22715;SDS011;11525;51.152;4.456;2024-02-21T01:26:03;28.05;;;12.77;;
22715;SDS011;11525;51.152;4.456;2024-02-21T01:28:29;24.50;;;12.10;;
22715;SDS011;11525;51.152;4.456;2024-02-21T01:30:56;21.58;;;12.95;;
22715;SDS011;11525;51.152;4.456;2024-02-21T01:33:22;24.73;;;12.10;;
22715;SDS011;11525;51.152;4.456;2024-02-21T01:35:48;28.77;;;12.48;;
22715;SDS011;11525;51.152;4.456;2024-02-21T01:38:15;26.13;;;11.95;;
22715;SDS011;11525;51.152;4.456;2024-02-21T01:40:41;24.85;;;12.48;;
22715;SDS011;11525;51.152;4.456;2024-02-21T01:43:16;27.35;;;12.68;;
22715;SDS011;11525;51.152;4.456;2024-02-21T01:45:45;27.90;;;12.63;;
22715;SDS011;11525;51.152;4.456;2024-02-21T01:48:14;24.80;;;13.40;;
22715;SDS011;11525;51.152;4.456;2024-02-21T01:50:41;26.58;;;12.40;;
22715;SDS011;11525;51.152;4.456;2024-02-21T01:53:07;31.27;;;13.80;;
22715;SDS011;11525;51.152;4.456;2024-02-21T01:55:33;31.33;;;14.02;;
22715;SDS011;11525;51.152;4.456;2024-02-21T01:58:00;32.22;;;13.70;;
22715;SDS011;11525;51.152;4.456;2024-02-21T02:00:26;33.67;;;14.48;;
22715;SDS011;11525;51.152;4.456;2024-02-21T02:02:53;28.42;;;13.57;;
22715;SDS011;11525;51.152;4.456;2024-02-21T02:05:20;30.17;;;14.02;;
22715;SDS011;11525;51.152;4.456;2024-02-21T02:07:46;31.10;;;13.85;;
22715;SDS011;11525;51.152;4.456;2024-02-21T02:10:12;28.88;;;14.60;;
22715;SDS011;11525;51.152;4.456;2024-02-21T02:12:38;31.42;;;14.50;;
22715;SDS011;11525;51.152;4.456;2024-02-21T02:15:04;29.92;;;14.13;;
22715;SDS011;11525;51.152;4.456;2024-02-21T02:17:30;27.40;;;14.18;;
22715;SDS011;11525;51.152;4.456;2024-02-21T02:19:56;27.23;;;14.23;;
22715;SDS011;11525;51.152;4.456;2024-02-21T02:22:25;30.83;;;15.38;;
22715;SDS011;11525;51.152;4.456;2024-02-21T02:24:54;30.95;;;14.13;;
22715;SDS011;11525;51.152;4.456;2024-02-21T02:27:20;30.40;;;14.85;;
22715;SDS011;11525;51.152;4.456;2024-02-21T02:29:48;31.40;;;15.23;;
22715;SDS011;11525;51.152;4.456;2024-02-21T02:32:14;31.45;;;15.48;;
22715;SDS011;11525;51.152;4.456;2024-02-21T02:34:40;28.10;;;15.23;;
22715;SDS011;11525;51.152;4.456;2024-02-21T02:37:05;27.63;;;15.48;;
22715;SDS011;11525;51.152;4.456;2024-02-21T02:39:31;28.27;;;15.40;;
22715;SDS011;11525;51.152;4.456;2024-02-21T02:41:57;31.52;;;14.98;;
22715;SDS011;11525;51.152;4.456;2024-02-21T02:44:23;30.48;;;15.93;;
22715;SDS011;11525;51.152;4.456;2024-02-21T02:46:49;34.85;;;16.35;;
22715;SDS011;11525;51.152;4.456;2024-02-21T02:49:14;31.85;;;16.20;;
22715;SDS011;11525;51.152;4.456;2024-02-21T02:51:41;34.35;;;16.50;;
22715;SDS011;11525;51.152;4.456;2024-02-21T02:54:08;29.13;;;15.55;;
22715;SDS011;11525;51.152;4.456;2024-02-21T02:56:34;35.65;;;16.13;;
22715;SDS011;11525;51.152;4.456;2024-02-21T02:59:00;30.25;;;15.52;;
22715;SDS011;11525;51.152;4.456;2024-02-21T03:01:25;31.40;;;15.32;;
22715;SDS011;11525;51.152;4.456;2024-02-21T03:03:52;33.00;;;17.08;;
22715;SDS011;11525;51.152;4.456;2024-02-21T03:06:18;32.67;;;15.73;;
22715;SDS011;11525;51.152;4.456;2024-02-21T03:08:44;34.33;;;16.23;;
22715;SDS011;11525;51.152;4.456;2024-02-21T03:11:10;32.67;;;15.48;;
22715;SDS011;11525;51.152;4.456;2024-02-21T03:13:36;31.65;;;16.02;;
22715;SDS011;11525;51.152;4.456;2024-02-21T03:16:02;28.02;;;15.77;;
22715;SDS011;11525;51.152;4.456;2024-02-21T03:18:28;26.52;;;14.52;;
22715;SDS011;11525;51.152;4.456;2024-02-21T03:20:54;32.50;;;15.20;;
22715;SDS011;11525;51.152;4.456;2024-02-21T03:23:19;25.65;;;14.65;;
22715;SDS011;11525;51.152;4.456;2024-02-21T03:25:45;27.73;;;13.93;;
22715;SDS011;11525;51.152;4.456;2024-02-21T03:28:11;25.08;;;13.68;;
22715;SDS011;11525;51.152;4.456;2024-02-21T03:30:37;31.58;;;15.43;;
22715;SDS011;11525;51.152;4.456;2024-02-21T03:33:03;25.40;;;13.60;;
22715;SDS011;11525;51.152;4.456;2024-02-21T03:35:29;27.38;;;13.95;;
22715;SDS011;11525;51.152;4.456;2024-02-21T03:37:55;31.70;;;14.60;;
22715;SDS011;11525;51.152;4.456;2024-02-21T03:40:20;29.77;;;13.98;;
22715;SDS011;11525;51.152;4.456;2024-02-21T03:42:46;27.42;;;13.80;;
22715;SDS011;11525;51.152;4.456;2024-02-21T03:45:14;26.67;;;14.48;;
22715;SDS011;11525;51.152;4.456;2024-02-21T03:47:39;26.88;;;13.30;;
22715;SDS011;11525;51.152;4.456;2024-02-21T03:50:06;25.02;;;13.23;;
22715;SDS011;11525;51.152;4.456;2024-02-21T03:52:32;29.58;;;14.70;;
22715;SDS011;11525;51.152;4.456;2024-02-21T03:54:57;21.92;;;12.25;;
22715;SDS011;11525;51.152;4.456;2024-02-21T03:57:23;25.17;;;13.18;;
22715;SDS011;11525;51.152;4.456;2024-02-21T03:59:52;28.10;;;13.32;;
22715;SDS011;11525;51.152;4.456;2024-02-21T04:02:18;25.75;;;13.20;;
22715;SDS011;11525;51.152;4.456;2024-02-21T04:04:44;22.05;;;12.98;;
22715;SDS011;11525;51.152;4.456;2024-02-21T04:07:12;24.48;;;13.20;;
22715;SDS011;11525;51.152;4.456;2024-02-21T04:09:38;21.98;;;12.20;;
22715;SDS011;11525;51.152;4.456;2024-02-21T04:12:05;25.02;;;13.57;;
22715;SDS011;11525;51.152;4.456;2024-02-21T04:14:31;22.73;;;12.45;;
22715;SDS011;11525;51.152;4.456;2024-02-21T04:16:57;22.40;;;12.77;;
22715;SDS011;11525;51.152;4.456;2024-02-21T04:19:22;31.20;;;13.60;;
22715;SDS011;11525;51.152;4.456;2024-02-21T04:21:48;32.25;;;14.10;;
22715;SDS011;11525;51.152;4.456;2024-02-21T04:24:14;27.02;;;13.98;;
22715;SDS011;11525;51.152;4.456;2024-02-21T04:26:40;29.48;;;14.73;;
22715;SDS011;11525;51.152;4.456;2024-02-21T04:29:05;28.88;;;13.43;;
22715;SDS011;11525;51.152;4.456;2024-02-21T04:31:34;27.63;;;14.32;;
22715;SDS011;11525;51.152;4.456;2024-02-21T04:34:00;28.58;;;14.35;;
22715;SDS011;11525;51.152;4.456;2024-02-21T04:36:26;27.67;;;13.82;;
22715;SDS011;11525;51.152;4.456;2024-02-21T04:38:52;29.33;;;14.75;;
22715;SDS011;11525;51.152;4.456;2024-02-21T04:41:17;26.92;;;15.23;;
22715;SDS011;11525;51.152;4.456;2024-02-21T04:43:43;29.02;;;15.50;;
22715;SDS011;11525;51.152;4.456;2024-02-21T04:46:12;34.25;;;16.55;;
22715;SDS011;11525;51.152;4.456;2024-02-21T04:48:37;32.67;;;16.42;;
22715;SDS011;11525;51.152;4.456;2024-02-21T04:51:03;34.47;;;16.70;;
22715;SDS011;11525;51.152;4.456;2024-02-21T04:53:29;31.25;;;16.13;;
22715;SDS011;11525;51.152;4.456;2024-02-21T04:55:55;33.65;;;16.75;;
22715;SDS011;11525;51.152;4.456;2024-02-21T04:58:20;34.13;;;16.30;;
22715;SDS011;11525;51.152;4.456;2024-02-21T05:00:46;32.97;;;16.83;;
22715;SDS011;11525;51.152;4.456;2024-02-21T05:03:12;26.65;;;16.15;;
22715;SDS011;11525;51.152;4.456;2024-02-21T05:05:38;27.73;;;15.95;;
22715;SDS011;11525;51.152;4.456;2024-02-21T05:08:04;27.25;;;15.75;;
22715;SDS011;11525;51.152;4.456;2024-02-21T05:10:30;28.48;;;16.33;;
22715;SDS011;11525;51.152;4.456;2024-02-21T05:12:55;32.78;;;16.23;;
22715;SDS011;11525;51.152;4.456;2024-02-21T05:15:22;30.90;;;16.00;;
22715;SDS011;11525;51.152;4.456;2024-02-21T05:17:47;36.60;;;17.17;;
22715;SDS011;11525;51.152;4.456;2024-02-21T05:20:13;29.90;;;16.15;;
22715;SDS011;11525;51.152;4.456;2024-02-21T05:22:39;30.65;;;16.60;;
22715;SDS011;11525;51.152;4.456;2024-02-21T05:25:05;38.78;;;16.42;;
22715;SDS011;11525;51.152;4.456;2024-02-21T05:27:31;32.08;;;16.98;;
22715;SDS011;11525;51.152;4.456;2024-02-21T05:29:57;34.63;;;17.35;;
22715;SDS011;11525;51.152;4.456;2024-02-21T05:32:23;28.17;;;17.05;;
22715;SDS011;11525;51.152;4.456;2024-02-21T05:34:49;26.65;;;15.88;;
22715;SDS011;11525;51.152;4.456;2024-02-21T05:37:16;33.65;;;17.08;;
22715;SDS011;11525;51.152;4.456;2024-02-21T05:39:41;30.25;;;17.58;;
22715;SDS011;11525;51.152;4.456;2024-02-21T05:42:07;37.20;;;18.13;;
22715;SDS011;11525;51.152;4.456;2024-02-21T05:44:33;34.08;;;18.00;;
22715;SDS011;11525;51.152;4.456;2024-02-21T05:46:59;34.40;;;17.58;;
22715;SDS011;11525;51.152;4.456;2024-02-21T05:49:25;30.30;;;16.85;;
22715;SDS011;11525;51.152;4.456;2024-02-21T05:51:50;36.03;;;17.88;;
22715;SDS011;11525;51.152;4.456;2024-02-21T05:54:16;31.10;;;17.05;;
22715;SDS011;11525;51.152;4.456;2024-02-21T05:56:45;29.90;;;16.85;;
22715;SDS011;11525;51.152;4.456;2024-02-21T05:59:12;27.50;;;15.93;;
22715;SDS011;11525;51.152;4.456;2024-02-21T06:01:37;34.78;;;16.90;;
22715;SDS011;11525;51.152;4.456;2024-02-21T06:04:03;33.30;;;17.55;;
22715;SDS011;11525;51.152;4.456;2024-02-21T06:06:29;31.35;;;16.42;;
22715;SDS011;11525;51.152;4.456;2024-02-21T06:08:55;30.73;;;15.82;;
22715;SDS011;11525;51.152;4.456;2024-02-21T06:11:22;31.40;;;16.67;;
22715;SDS011;11525;51.152;4.456;2024-02-21T06:13:47;29.17;;;15.68;;
22715;SDS011;11525;51.152;4.456;2024-02-21T06:16:13;26.63;;;15.38;;
22715;SDS011;11525;51.152;4.456;2024-02-21T06:18:39;28.67;;;15.20;;
22715;SDS011;11525;51.152;4.456;2024-02-21T06:21:05;24.55;;;14.98;;
22715;SDS011;11525;51.152;4.456;2024-02-21T06:23:31;26.77;;;14.60;;
22715;SDS011;11525;51.152;4.456;2024-02-21T06:25:57;25.50;;;15.05;;
22715;SDS011;11525;51.152;4.456;2024-02-21T06:28:23;25.05;;;14.65;;
22715;SDS011;11525;51.152;4.456;2024-02-21T06:30:48;24.10;;;14.05;;
22715;SDS011;11525;51.152;4.456;2024-02-21T06:33:14;27.17;;;14.75;;
22715;SDS011;11525;51.152;4.456;2024-02-21T06:35:40;33.70;;;14.13;;
22715;SDS011;11525;51.152;4.456;2024-02-21T06:38:07;30.10;;;14.52;;
22715;SDS011;11525;51.152;4.456;2024-02-21T06:40:33;22.60;;;14.10;;
22715;SDS011;11525;51.152;4.456;2024-02-21T06:43:04;23.02;;;14.15;;
22715;SDS011;11525;51.152;4.456;2024-02-21T06:45:30;28.15;;;14.02;;
22715;SDS011;11525;51.152;4.456;2024-02-21T06:47:56;25.27;;;15.27;;
22715;SDS011;11525;51.152;4.456;2024-02-21T06:50:22;27.95;;;14.75;;
22715;SDS011;11525;51.152;4.456;2024-02-21T06:52:47;23.00;;;13.90;;
22715;SDS011;11525;51.152;4.456;2024-02-21T06:55:13;24.35;;;14.10;;
22715;SDS011;11525;51.152;4.456;2024-02-21T06:57:39;21.90;;;13.75;;
22715;SDS011;11525;51.152;4.456;2024-02-21T07:00:05;21.17;;;13.35;;
22715;SDS011;11525;51.152;4.456;2024-02-21T07:02:33;22.13;;;13.45;;
22715;SDS011;11525;51.152;4.456;2024-02-21T07:04:59;21.08;;;13.07;;
22715;SDS011;11525;51.152;4.456;2024-02-21T07:07:25;19.55;;;13.25;;
22715;SDS011;11525;51.152;4.456;2024-02-21T07:09:50;21.48;;;13.27;;
22715;SDS011;11525;51.152;4.456;2024-02-21T07:12:18;21.23;;;12.68;;
22715;SDS011;11525;51.152;4.456;2024-02-21T07:14:44;19.38;;;13.00;;
22715;SDS011;11525;51.152;4.456;2024-02-21T07:17:10;20.80;;;12.75;;
22715;SDS011;11525;51.152;4.456;2024-02-21T07:19:36;19.48;;;12.15;;
22715;SDS011;11525;51.152;4.456;2024-02-21T07:22:01;19.25;;;13.43;;
22715;SDS011;11525;51.152;4.456;2024-02-21T07:24:27;21.40;;;12.05;;
22715;SDS011;11525;51.152;4.456;2024-02-21T07:26:53;22.88;;;12.20;;
22715;SDS011;11525;51.152;4.456;2024-02-21T07:29:21;19.67;;;11.77;;
22715;SDS011;11525;51.152;4.456;2024-02-21T07:31:46;18.83;;;12.70;;
22715;SDS011;11525;51.152;4.456;2024-02-21T07:34:13;18.83;;;13.23;;
22715;SDS011;11525;51.152;4.456;2024-02-21T07:36:40;17.48;;;12.60;;
22715;SDS011;11525;51.152;4.456;2024-02-21T07:39:07;21.25;;;12.18;;
22715;SDS011;11525;51.152;4.456;2024-02-21T07:41:33;17.38;;;12.27;;
22715;SDS011;11525;51.152;4.456;2024-02-21T07:43:59;14.45;;;11.23;;
22715;SDS011;11525;51.152;4.456;2024-02-21T07:46:25;18.08;;;12.23;;
22715;SDS011;11525;51.152;4.456;2024-02-21T07:48:51;15.82;;;12.23;;
22715;SDS011;11525;51.152;4.456;2024-02-21T07:51:17;17.58;;;11.38;;
22715;SDS011;11525;51.152;4.456;2024-02-21T07:53:43;17.92;;;12.48;;
22715;SDS011;11525;51.152;4.456;2024-02-21T07:56:13;15.48;;;12.18;;
22715;SDS011;11525;51.152;4.456;2024-02-21T07:58:40;17.95;;;12.70;;
22715;SDS011;11525;51.152;4.456;2024-02-21T08:01:07;13.98;;;12.05;;
22715;SDS011;11525;51.152;4.456;2024-02-21T08:03:33;16.67;;;13.80;;
22715;SDS011;11525;51.152;4.456;2024-02-21T08:05:59;23.25;;;13.43;;
22715;SDS011;11525;51.152;4.456;2024-02-21T08:08:25;16.88;;;13.20;;
22715;SDS011;11525;51.152;4.456;2024-02-21T08:10:51;21.27;;;14.43;;
22715;SDS011;11525;51.152;4.456;2024-02-21T08:13:17;17.38;;;12.80;;
22715;SDS011;11525;51.152;4.456;2024-02-21T08:15:43;16.63;;;12.90;;
22715;SDS011;11525;51.152;4.456;2024-02-21T08:18:09;21.48;;;14.15;;
22715;SDS011;11525;51.152;4.456;2024-02-21T08:20:35;20.58;;;16.30;;
22715;SDS011;11525;51.152;4.456;2024-02-21T08:23:01;24.17;;;17.30;;
22715;SDS011;11525;51.152;4.456;2024-02-21T08:25:27;24.95;;;18.35;;
22715;SDS011;11525;51.152;4.456;2024-02-21T08:27:58;24.70;;;19.45;;
22715;SDS011;11525;51.152;4.456;2024-02-21T08:30:24;26.73;;;20.95;;
22715;SDS011;11525;51.152;4.456;2024-02-21T08:32:50;30.23;;;21.20;;
22715;SDS011;11525;51.152;4.456;2024-02-21T08:35:16;26.42;;;21.58;;
22715;SDS011;11525;51.152;4.456;2024-02-21T08:37:47;29.20;;;21.67;;
22715;SDS011;11525;51.152;4.456;2024-02-21T08:40:13;29.50;;;20.98;;
22715;SDS011;11525;51.152;4.456;2024-02-21T08:42:42;28.17;;;19.95;;
22715;SDS011;11525;51.152;4.456;2024-02-21T08:45:09;26.95;;;19.27;;
22715;SDS011;11525;51.152;4.456;2024-02-21T08:47:35;23.33;;;19.13;;
22715;SDS011;11525;51.152;4.456;2024-02-21T08:50:02;27.05;;;19.20;;
22715;SDS011;11525;51.152;4.456;2024-02-21T08:52:28;26.85;;;18.08;;
22715;SDS011;11525;51.152;4.456;2024-02-21T08:54:53;22.92;;;16.25;;
22715;SDS011;11525;51.152;4.456;2024-02-21T08:57:19;26.77;;;16.05;;
22715;SDS011;11525;51.152;4.456;2024-02-21T08:59:46;19.77;;;15.27;;
22715;SDS011;11525;51.152;4.456;2024-02-21T09:02:12;21.83;;;15.43;;
22715;SDS011;11525;51.152;4.456;2024-02-21T09:04:38;21.92;;;14.88;;
22715;SDS011;11525;51.152;4.456;2024-02-21T09:07:04;22.15;;;13.65;;
22715;SDS011;11525;51.152;4.456;2024-02-21T09:09:30;19.23;;;11.95;;
22715;SDS011;11525;51.152;4.456;2024-02-21T09:11:58;18.77;;;11.73;;
22715;SDS011;11525;51.152;4.456;2024-02-21T09:14:30;20.77;;;11.35;;
22715;SDS011;11525;51.152;4.456;2024-02-21T09:16:57;16.15;;;10.38;;
22715;SDS011;11525;51.152;4.456;2024-02-21T09:19:22;14.48;;;9.60;;
22715;SDS011;11525;51.152;4.456;2024-02-21T09:21:48;15.82;;;9.70;;
22715;SDS011;11525;51.152;4.456;2024-02-21T09:24:14;12.93;;;8.40;;
22715;SDS011;11525;51.152;4.456;2024-02-21T09:26:40;13.93;;;8.70;;
22715;SDS011;11525;51.152;4.456;2024-02-21T09:29:05;17.80;;;9.25;;
22715;SDS011;11525;51.152;4.456;2024-02-21T09:31:31;13.70;;;8.60;;
22715;SDS011;11525;51.152;4.456;2024-02-21T09:33:57;13.75;;;7.70;;
22715;SDS011;11525;51.152;4.456;2024-02-21T09:36:23;15.25;;;8.32;;
22715;SDS011;11525;51.152;4.456;2024-02-21T09:38:49;12.25;;;7.68;;
22715;SDS011;11525;51.152;4.456;2024-02-21T09:41:18;13.25;;;7.53;;
22715;SDS011;11525;51.152;4.456;2024-02-21T09:43:51;14.05;;;8.43;;
22715;SDS011;11525;51.152;4.456;2024-02-21T09:46:19;13.27;;;7.65;;
22715;SDS011;11525;51.152;4.456;2024-02-21T09:49:04;8.93;;;6.50;;
22715;SDS011;11525;51.152;4.456;2024-02-21T09:51:46;11.30;;;7.10;;
22715;SDS011;11525;51.152;4.456;2024-02-21T09:54:14;14.50;;;6.70;;
22715;SDS011;11525;51.152;4.456;2024-02-21T09:56:40;10.95;;;6.55;;
22715;SDS011;11525;51.152;4.456;2024-02-21T09:59:06;14.38;;;7.05;;
22715;SDS011;11525;51.152;4.456;2024-02-21T10:01:33;9.55;;;6.30;;
22715;SDS011;11525;51.152;4.456;2024-02-21T10:03:59;9.57;;;6.45;;
22715;SDS011;11525;51.152;4.456;2024-02-21T10:06:25;9.93;;;6.40;;
22715;SDS011;11525;51.152;4.456;2024-02-21T10:08:54;8.15;;;5.57;;
22715;SDS011;11525;51.152;4.456;2024-02-21T10:11:23;12.20;;;6.15;;
22715;SDS011;11525;51.152;4.456;2024-02-21T10:13:49;9.02;;;5.93;;
22715;SDS011;11525;51.152;4.456;2024-02-21T10:16:15;7.03;;;5.20;;
22715;SDS011;11525;51.152;4.456;2024-02-21T10:18:41;8.27;;;5.38;;
22715;SDS011;11525;51.152;4.456;2024-02-21T10:21:07;8.82;;;5.90;;
22715;SDS011;11525;51.152;4.456;2024-02-21T10:26:09;12.15;;;6.50;;
22715;SDS011;11525;51.152;4.456;2024-02-21T10:28:34;13.40;;;6.13;;
22715;SDS011;11525;51.152;4.456;2024-02-21T10:31:00;10.48;;;5.80;;
22715;SDS011;11525;51.152;4.456;2024-02-21T10:33:26;10.10;;;5.65;;
22715;SDS011;11525;51.152;4.456;2024-02-21T10:35:53;11.25;;;5.70;;
22715;SDS011;11525;51.152;4.456;2024-02-21T10:38:19;10.63;;;5.75;;
22715;SDS011;11525;51.152;4.456;2024-02-21T10:40:45;9.25;;;5.70;;
22715;SDS011;11525;51.152;4.456;2024-02-21T10:43:12;10.15;;;5.30;;
22715;SDS011;11525;51.152;4.456;2024-02-21T10:45:43;12.52;;;5.47;;
22715;SDS011;11525;51.152;4.456;2024-02-21T10:48:15;11.93;;;5.68;;
22715;SDS011;11525;51.152;4.456;2024-02-21T10:56:32;12.05;;;5.75;;
22715;SDS011;11525;51.152;4.456;2024-02-21T10:59:02;11.30;;;6.43;;
22715;SDS011;11525;51.152;4.456;2024-02-21T11:01:29;14.30;;;6.00;;
22715;SDS011;11525;51.152;4.456;2024-02-21T11:04:07;10.40;;;6.32;;
22715;SDS011;11525;51.152;4.456;2024-02-21T11:06:35;12.88;;;6.72;;
22715;SDS011;11525;51.152;4.456;2024-02-21T11:09:06;12.60;;;6.88;;
22715;SDS011;11525;51.152;4.456;2024-02-21T11:11:37;13.35;;;7.03;;
22715;SDS011;11525;51.152;4.456;2024-02-21T11:14:10;17.48;;;8.00;;
22715;SDS011;11525;51.152;4.456;2024-02-21T11:16:43;20.60;;;8.13;;
22715;SDS011;11525;51.152;4.456;2024-02-21T11:19:09;16.08;;;8.23;;
22715;SDS011;11525;51.152;4.456;2024-02-21T11:21:44;13.73;;;8.50;;
22715;SDS011;11525;51.152;4.456;2024-02-21T11:24:10;15.07;;;8.48;;
22715;SDS011;11525;51.152;4.456;2024-02-21T11:26:37;17.90;;;7.93;;
22715;SDS011;11525;51.152;4.456;2024-02-21T11:29:03;11.95;;;7.53;;
22715;SDS011;11525;51.152;4.456;2024-02-21T11:31:39;17.75;;;7.88;;
22715;SDS011;11525;51.152;4.456;2024-02-21T11:34:08;18.48;;;8.25;;
22715;SDS011;11525;51.152;4.456;2024-02-21T11:36:35;12.52;;;6.50;;
22715;SDS011;11525;51.152;4.456;2024-02-21T11:39:04;11.00;;;6.95;;
22715;SDS011;11525;51.152;4.456;2024-02-21T11:41:31;15.48;;;6.35;;
22715;SDS011;11525;51.152;4.456;2024-02-21T11:43:57;16.05;;;6.65;;
22715;SDS011;11525;51.152;4.456;2024-02-21T11:46:23;12.20;;;6.38;;
22715;SDS011;11525;51.152;4.456;2024-02-21T11:48:49;15.65;;;6.40;;
22715;SDS011;11525;51.152;4.456;2024-02-21T11:51:21;14.60;;;6.68;;
22715;SDS011;11525;51.152;4.456;2024-02-21T11:53:50;11.52;;;6.90;;
22715;SDS011;11525;51.152;4.456;2024-02-21T11:56:17;10.48;;;6.95;;
22715;SDS011;11525;51.152;4.456;2024-02-21T11:58:44;22.17;;;8.90;;
22715;SDS011;11525;51.152;4.456;2024-02-21T12:01:11;15.20;;;8.13;;
22715;SDS011;11525;51.152;4.456;2024-02-21T12:03:37;16.92;;;9.55;;
22715;SDS011;11525;51.152;4.456;2024-02-21T12:06:03;17.25;;;9.70;;
22715;SDS011;11525;51.152;4.456;2024-02-21T12:08:44;15.75;;;9.55;;
22715;SDS011;11525;51.152;4.456;2024-02-21T12:11:22;16.13;;;10.00;;
22715;SDS011;11525;51.152;4.456;2024-02-21T12:14:03;15.73;;;10.15;;
22715;SDS011;11525;51.152;4.456;2024-02-21T12:16:34;15.95;;;7.75;;
22715;SDS011;11525;51.152;4.456;2024-02-21T12:19:02;14.20;;;8.00;;
22715;SDS011;11525;51.152;4.456;2024-02-21T12:21:31;15.13;;;8.02;;
22715;SDS011;11525;51.152;4.456;2024-02-21T12:23:59;14.50;;;7.20;;
22715;SDS011;11525;51.152;4.456;2024-02-21T12:26:25;16.33;;;7.35;;
22715;SDS011;11525;51.152;4.456;2024-02-21T12:28:52;14.55;;;7.13;;
22715;SDS011;11525;51.152;4.456;2024-02-21T12:31:20;15.98;;;7.20;;
22715;SDS011;11525;51.152;4.456;2024-02-21T12:33:46;12.93;;;7.75;;
22715;SDS011;11525;51.152;4.456;2024-02-21T12:36:13;12.85;;;7.85;;
22715;SDS011;11525;51.152;4.456;2024-02-21T12:38:39;15.02;;;6.80;;
22715;SDS011;11525;51.152;4.456;2024-02-21T12:41:05;16.27;;;6.80;;
22715;SDS011;11525;51.152;4.456;2024-02-21T12:43:32;14.63;;;6.65;;
22715;SDS011;11525;51.152;4.456;2024-02-21T12:45:59;16.88;;;7.13;;
22715;SDS011;11525;51.152;4.456;2024-02-21T12:48:25;11.75;;;7.15;;
22715;SDS011;11525;51.152;4.456;2024-02-21T12:50:50;10.23;;;6.45;;
22715;SDS011;11525;51.152;4.456;2024-02-21T12:53:19;15.57;;;6.32;;
22715;SDS011;11525;51.152;4.456;2024-02-21T12:55:49;15.05;;;7.13;;
22715;SDS011;11525;51.152;4.456;2024-02-21T12:58:15;12.80;;;7.05;;
22715;SDS011;11525;51.152;4.456;2024-02-21T13:00:41;16.25;;;7.22;;
22715;SDS011;11525;51.152;4.456;2024-02-21T13:03:08;15.80;;;6.82;;
22715;SDS011;11525;51.152;4.456;2024-02-21T13:05:37;12.48;;;6.60;;
22715;SDS011;11525;51.152;4.456;2024-02-21T13:08:04;14.60;;;7.15;;
22715;SDS011;11525;51.152;4.456;2024-02-21T13:10:31;10.75;;;6.28;;
22715;SDS011;11525;51.152;4.456;2024-02-21T13:12:58;12.73;;;6.50;;
22715;SDS011;11525;51.152;4.456;2024-02-21T13:15:24;15.00;;;6.80;;
22715;SDS011;11525;51.152;4.456;2024-02-21T13:17:50;14.40;;;6.57;;
22715;SDS011;11525;51.152;4.456;2024-02-21T13:20:15;13.18;;;6.57;;
22715;SDS011;11525;51.152;4.456;2024-02-21T13:22:41;15.48;;;7.50;;
22715;SDS011;11525;51.152;4.456;2024-02-21T13:25:07;16.08;;;7.00;;
22715;SDS011;11525;51.152;4.456;2024-02-21T13:27:33;14.93;;;6.75;;
22715;SDS011;11525;51.152;4.456;2024-02-21T13:29:59;15.02;;;7.30;;
22715;SDS011;11525;51.152;4.456;2024-02-21T13:32:28;13.35;;;6.95;;
22715;SDS011;11525;51.152;4.456;2024-02-21T13:34:55;13.15;;;7.90;;
22715;SDS011;11525;51.152;4.456;2024-02-21T13:37:21;14.10;;;8.13;;
22715;SDS011;11525;51.152;4.456;2024-02-21T13:39:47;12.15;;;7.78;;
22715;SDS011;11525;51.152;4.456;2024-02-21T13:42:12;11.57;;;7.60;;
22715;SDS011;11525;51.152;4.456;2024-02-21T13:44:38;14.70;;;8.02;;
22715;SDS011;11525;51.152;4.456;2024-02-21T13:47:04;14.05;;;7.38;;
22715;SDS011;11525;51.152;4.456;2024-02-21T13:49:33;14.43;;;8.07;;
22715;SDS011;11525;51.152;4.456;2024-02-21T13:51:59;10.63;;;7.35;;
22715;SDS011;11525;51.152;4.456;2024-02-21T13:54:25;13.30;;;7.82;;
22715;SDS011;11525;51.152;4.456;2024-02-21T13:56:51;15.05;;;7.35;;
22715;SDS011;11525;51.152;4.456;2024-02-21T13:59:16;16.15;;;8.40;;
22715;SDS011;11525;51.152;4.456;2024-02-21T14:01:43;11.93;;;7.22;;
22715;SDS011;11525;51.152;4.456;2024-02-21T14:04:09;12.85;;;7.75;;
22715;SDS011;11525;51.152;4.456;2024-02-21T14:06:34;16.48;;;7.82;;
22715;SDS011;11525;51.152;4.456;2024-02-21T14:09:02;15.07;;;8.52;;
22715;SDS011;11525;51.152;4.456;2024-02-21T14:11:28;12.93;;;7.25;;
22715;SDS011;11525;51.152;4.456;2024-02-21T14:13:55;25.38;;;8.07;;
22715;SDS011;11525;51.152;4.456;2024-02-21T14:16:22;11.85;;;7.93;;
22715;SDS011;11525;51.152;4.456;2024-02-21T14:18:48;11.52;;;7.07;;
22715;SDS011;11525;51.152;4.456;2024-02-21T14:21:14;11.70;;;8.07;;
22715;SDS011;11525;51.152;4.456;2024-02-21T14:23:40;12.07;;;7.30;;
22715;SDS011;11525;51.152;4.456;2024-02-21T14:26:05;16.17;;;8.30;;
22715;SDS011;11525;51.152;4.456;2024-02-21T14:28:31;13.50;;;8.43;;
22715;SDS011;11525;51.152;4.456;2024-02-21T14:30:59;16.27;;;8.82;;